Asiatic Wave — 9V8790 — position and weather

sailwx.info

Track history (hours):
 
Tides and Currents Weather Stations Pressure Air Temp Water Temp Dewpoint Dewpoint Depression Visibility Wind Speed Wind Dir Waves Ship Positions

Asiatic Wave

Last reported at 2016-Jun-28 01:25 UTC. Time now 2016-Jun-28 13:28 UTC.
Position N 31°17' E 121°50'.

Length 148 m; draft 7.7 m.

Type: Ship. MMSI: 564211000.

Date/timePositionNaut miles runAvg speedWind from/ knotsBaromVisibWave heightAir tempDewpointWater temp
2016-Jun-28 01:25N 31°17' E 121°50'1113.2
2016-Jun-28 00:33N 31°21' E 121°38'2 2.0
2016-Jun-27 23:24N 31°22' E 121°36'0 0.0
2016-Jun-27 22:30N 31°22' E 121°36'0 0.0
2016-Jun-27 21:29N 31°22' E 121°36'0 0.0
2016-Jun-27 20:23N 31°22' E 121°36'0 0.0
2016-Jun-27 19:22N 31°22' E 121°36'0 0.0
2016-Jun-27 18:28N 31°22' E 121°36'0 0.0
2016-Jun-27 17:10N 31°22' E 121°36'0 0.0
2016-Jun-27 16:33N 31°22' E 121°36'0 0.0
2016-Jun-27 15:32N 31°22' E 121°36'0 0.0
2016-Jun-27 14:32N 31°22' E 121°36'0 0.0
2016-Jun-27 13:28N 31°22' E 121°36'0 0.0
2016-Jun-27 12:19N 31°22' E 121°36'0 0.0
2016-Jun-27 11:30N 31°22' E 121°36'0 0.0
2016-Jun-27 08:29N 31°22' E 121°36'0 0.0
2016-Jun-27 07:33N 31°22' E 121°36'9 8.7
2016-Jun-27 06:28N 31°18' E 121°46'  
2016-Jun-24 16:14N 34°55' E 139°23'1117.1
2016-Jun-24 15:34N 35°02' E 139°34'1615.8
2016-Jun-24 14:33N 35°14' E 139°46'1312.9
2016-Jun-24 13:33N 35°27' E 139°42'1 0.7
2016-Jun-24 12:32N 35°26' E 139°41'0 0.0
2016-Jun-24 11:32N 35°26' E 139°41'0 0.0
2016-Jun-24 10:31N 35°26' E 139°41'0 0.0
2016-Jun-24 09:31N 35°26' E 139°41'0 0.0
2016-Jun-24 08:31N 35°26' E 139°41'0 0.0
2016-Jun-24 07:33N 35°26' E 139°41'0 0.1
2016-Jun-24 04:33N 35°26' E 139°41'1111.2
2016-Jun-24 03:33N 35°34' E 139°51'4 3.5
2016-Jun-24 02:32N 35°36' E 139°48'0 0.1
2016-Jun-24 01:32N 35°36' E 139°48'0 0.0
2016-Jun-24 00:31N 35°36' E 139°48'0 0.0
2016-Jun-23 23:32N 35°36' E 139°48'0 0.1
2016-Jun-23 22:33N 35°36' E 139°48'0 0.0
2016-Jun-23 21:33N 35°36' E 139°48'0 0.0
2016-Jun-23 20:30N 35°36' E 139°48'0 0.0
2016-Jun-23 19:32N 35°36' E 139°48'0 0.0
2016-Jun-23 18:32N 35°36' E 139°48'0 0.0
2016-Jun-23 17:31N 35°36' E 139°48'0 0.0
2016-Jun-23 16:31N 35°36' E 139°48'0 0.0
2016-Jun-23 15:33N 35°36' E 139°48'0 0.0
2016-Jun-23 14:30N 35°36' E 139°48'0 0.0
2016-Jun-23 13:33N 35°36' E 139°48'0 0.0
2016-Jun-23 12:32N 35°36' E 139°48'0 0.0
2016-Jun-23 11:32N 35°36' E 139°48'0 0.0
2016-Jun-23 10:31N 35°36' E 139°48'0 0.0
2016-Jun-23 09:28N 35°36' E 139°48'0 0.0
2016-Jun-23 08:33N 35°36' E 139°48'0 0.0
2016-Jun-23 07:33N 35°36' E 139°48'18 8.8
2016-Jun-23 05:33N 35°19' E 139°44'1313.1
2016-Jun-23 04:33N 35°06' E 139°44'90417.7
2016-Jun-21 01:28N 31°05' E 122°24'2511.9
2016-Jun-20 23:23N 31°15' E 121°57'1314.8
2016-Jun-20 22:32N 31°19' E 121°43'3 0.4
2016-Jun-20 14:13N 31°20' E 121°40'0 0.0
2016-Jun-20 09:29N 31°20' E 121°40'0 0.0
2016-Jun-20 08:29N 31°20' E 121°40'0 0.1
2016-Jun-20 07:32N 31°20' E 121°40'7 6.6
2016-Jun-20 06:32N 31°18' E 121°47'1010.2
2016-Jun-20 05:33N 31°15' E 121°58'  
Track history (hours):
 
Tides and Currents Weather Stations Pressure Air Temp Water Temp Dewpoint Dewpoint Depression Visibility Wind Speed Wind Dir Waves Ship Positions

Asiatic Wave

Last reported at 2016-Jun-28 01:25 UTC. Time now 2016-Jun-28 13:28 UTC.
Position N 31°17' E 121°50'.

Length 148 m; draft 7.7 m.

Type: Ship. MMSI: 564211000.

Date/timePositionNaut miles runAvg speedWind from/ knotsBaromVisibWave heightAir tempDewpointWater temp
2016-Jun-28 01:25N 31°17' E 121°50'1113.2
2016-Jun-28 00:33N 31°21' E 121°38'2 2.0
2016-Jun-27 23:24N 31°22' E 121°36'0 0.0
2016-Jun-27 22:30N 31°22' E 121°36'0 0.0
2016-Jun-27 21:29N 31°22' E 121°36'0 0.0
2016-Jun-27 20:23N 31°22' E 121°36'0 0.0
2016-Jun-27 19:22N 31°22' E 121°36'0 0.0
2016-Jun-27 18:28N 31°22' E 121°36'0 0.0
2016-Jun-27 17:10N 31°22' E 121°36'0 0.0
2016-Jun-27 16:33N 31°22' E 121°36'0 0.0
2016-Jun-27 15:32N 31°22' E 121°36'0 0.0
2016-Jun-27 14:32N 31°22' E 121°36'0 0.0
2016-Jun-27 13:28N 31°22' E 121°36'0 0.0
2016-Jun-27 12:19N 31°22' E 121°36'0 0.0
2016-Jun-27 11:30N 31°22' E 121°36'0 0.0
2016-Jun-27 08:29N 31°22' E 121°36'0 0.0
2016-Jun-27 07:33N 31°22' E 121°36'9 8.7
2016-Jun-27 06:28N 31°18' E 121°46'  
2016-Jun-24 16:14N 34°55' E 139°23'1117.1
2016-Jun-24 15:34N 35°02' E 139°34'1615.8
2016-Jun-24 14:33N 35°14' E 139°46'1312.9
2016-Jun-24 13:33N 35°27' E 139°42'1 0.7
2016-Jun-24 12:32N 35°26' E 139°41'0 0.0
2016-Jun-24 11:32N 35°26' E 139°41'0 0.0
2016-Jun-24 10:31N 35°26' E 139°41'0 0.0
2016-Jun-24 09:31N 35°26' E 139°41'0 0.0
2016-Jun-24 08:31N 35°26' E 139°41'0 0.0
2016-Jun-24 07:33N 35°26' E 139°41'0 0.1
2016-Jun-24 04:33N 35°26' E 139°41'1111.2
2016-Jun-24 03:33N 35°34' E 139°51'4 3.5
2016-Jun-24 02:32N 35°36' E 139°48'0 0.1
2016-Jun-24 01:32N 35°36' E 139°48'0 0.0
2016-Jun-24 00:31N 35°36' E 139°48'0 0.0
2016-Jun-23 23:32N 35°36' E 139°48'0 0.1
2016-Jun-23 22:33N 35°36' E 139°48'0 0.0
2016-Jun-23 21:33N 35°36' E 139°48'0 0.0
2016-Jun-23 20:30N 35°36' E 139°48'0 0.0
2016-Jun-23 19:32N 35°36' E 139°48'0 0.0
2016-Jun-23 18:32N 35°36' E 139°48'0 0.0
2016-Jun-23 17:31N 35°36' E 139°48'0 0.0
2016-Jun-23 16:31N 35°36' E 139°48'0 0.0
2016-Jun-23 15:33N 35°36' E 139°48'0 0.0
2016-Jun-23 14:30N 35°36' E 139°48'0 0.0
2016-Jun-23 13:33N 35°36' E 139°48'0 0.0
2016-Jun-23 12:32N 35°36' E 139°48'0 0.0
2016-Jun-23 11:32N 35°36' E 139°48'0 0.0
2016-Jun-23 10:31N 35°36' E 139°48'0 0.0
2016-Jun-23 09:28N 35°36' E 139°48'0 0.0
2016-Jun-23 08:33N 35°36' E 139°48'0 0.0
2016-Jun-23 07:33N 35°36' E 139°48'18 8.8
2016-Jun-23 05:33N 35°19' E 139°44'1313.1
2016-Jun-23 04:33N 35°06' E 139°44'90417.7
2016-Jun-21 01:28N 31°05' E 122°24'2511.9
2016-Jun-20 23:23N 31°15' E 121°57'1314.8
2016-Jun-20 22:32N 31°19' E 121°43'3 0.4
2016-Jun-20 14:13N 31°20' E 121°40'0 0.0
2016-Jun-20 09:29N 31°20' E 121°40'0 0.0
2016-Jun-20 08:29N 31°20' E 121°40'0 0.1
2016-Jun-20 07:32N 31°20' E 121°40'7 6.6
2016-Jun-20 06:32N 31°18' E 121°47'1010.2
2016-Jun-20 05:33N 31°15' E 121°58'  

Dump ship's entire track history